createdAt,value
2022-09-24T00:01:52.125Z,15.37
2022-09-24T00:04:27.982Z,15.10
2022-09-24T00:06:54.521Z,10.27
2022-09-24T00:09:22.242Z,8.00
2022-09-24T00:11:56.813Z,6.70
2022-09-24T00:14:25.756Z,6.67
2022-09-24T00:16:55.050Z,6.70
2022-09-24T00:19:21.576Z,6.93
2022-09-24T00:21:48.162Z,7.05
2022-09-24T00:24:36.443Z,7.47
2022-09-24T00:27:05.884Z,6.23
2022-09-24T00:29:34.480Z,7.03
2022-09-24T00:32:04.665Z,6.93
2022-09-24T00:34:31.274Z,7.05
2022-09-24T00:36:57.985Z,6.28
2022-09-24T00:39:27.283Z,7.20
2022-09-24T00:41:56.601Z,7.72
2022-09-24T00:44:41.686Z,7.15
2022-09-24T00:47:20.003Z,6.97
2022-09-24T00:49:49.418Z,6.97
2022-09-24T00:52:18.463Z,7.23
2022-09-24T00:54:45.593Z,7.95
2022-09-24T00:57:16.935Z,8.00
2022-09-24T00:59:45.405Z,7.28
2022-09-24T01:02:12.950Z,7.75
2022-09-24T01:04:47.092Z,7.70
2022-09-24T01:07:16.272Z,8.18
2022-09-24T01:09:43.064Z,6.97
2022-09-24T01:12:33.547Z,8.27
2022-09-24T01:15:05.481Z,8.05
2022-09-24T01:17:38.068Z,7.83
2022-09-24T01:20:18.939Z,7.75
2022-09-24T01:23:19.407Z,7.53
2022-09-24T01:26:09.862Z,7.95
2022-09-24T01:29:04.086Z,8.07
2022-09-24T01:31:44.574Z,7.37
2022-09-24T01:34:15.638Z,8.13
2022-09-24T01:36:44.694Z,8.13
2022-09-24T01:39:14.917Z,8.98
2022-09-24T01:41:48.237Z,8.88
2022-09-24T01:44:18.544Z,8.37
2022-09-24T01:46:47.418Z,8.77
2022-09-24T01:49:14.403Z,8.60
2022-09-24T01:51:48.415Z,8.63
2022-09-24T01:54:40.749Z,7.95
2022-09-24T01:57:17.522Z,8.07
2022-09-24T01:59:50.404Z,8.30
2022-09-24T02:02:36.018Z,7.82
2022-09-24T02:05:13.922Z,7.63
2022-09-24T02:08:11.448Z,8.40
2022-09-24T02:10:47.537Z,7.43
2022-09-24T02:13:16.629Z,7.43
2022-09-24T02:15:49.035Z,8.43
2022-09-24T02:18:20.429Z,8.00
2022-09-24T02:20:52.209Z,7.10
2022-09-24T02:23:20.306Z,7.50
2022-09-24T02:25:58.929Z,8.77
2022-09-24T02:28:27.113Z,7.78
2022-09-24T02:31:06.935Z,7.72
2022-09-24T02:33:55.299Z,7.75
2022-09-24T02:36:25.011Z,9.20
2022-09-24T02:38:56.481Z,7.43
2022-09-24T02:41:27.209Z,7.35
2022-09-24T02:43:54.142Z,7.85
2022-09-24T02:46:20.797Z,6.63
2022-09-24T02:48:50.071Z,7.00
2022-09-24T02:51:16.655Z,5.53
2022-09-24T02:53:43.166Z,4.90
2022-09-24T02:56:11.838Z,4.60
2022-09-24T02:58:38.785Z,4.07
2022-09-24T03:01:05.936Z,3.03
2022-09-24T03:03:35.683Z,3.00
2022-09-24T03:06:02.348Z,2.92
2022-09-24T03:08:33.088Z,2.67
2022-09-24T03:11:02.715Z,4.88
2022-09-24T03:13:29.359Z,4.20
2022-09-24T03:16:00.882Z,4.43
2022-09-24T03:18:32.355Z,6.18
2022-09-24T03:21:10.920Z,7.60
2022-09-24T03:23:37.972Z,8.27
2022-09-24T03:26:09.909Z,8.93
2022-09-24T03:28:37.052Z,8.38
2022-09-24T03:31:03.953Z,7.70
2022-09-24T03:33:35.081Z,8.20
2022-09-24T03:36:25.098Z,7.38
2022-09-24T03:38:59.822Z,6.40
2022-09-24T03:42:02.419Z,4.20
2022-09-24T03:44:28.940Z,3.35
2022-09-24T03:46:57.802Z,3.28
2022-09-24T03:49:24.486Z,3.03
2022-09-24T03:51:51.007Z,2.67
2022-09-24T03:54:19.894Z,3.08
2022-09-24T03:56:46.419Z,3.35
2022-09-24T03:59:13.230Z,3.50
2022-09-24T04:01:39.810Z,3.20
2022-09-24T04:04:09.336Z,3.83
2022-09-24T04:06:37.408Z,3.05
2022-09-24T04:09:04.049Z,3.50
2022-09-24T04:11:35.365Z,4.50
2022-09-24T04:14:06.958Z,4.30
2022-09-24T04:16:36.507Z,5.13
2022-09-24T04:19:03.194Z,5.45
2022-09-24T04:21:30.263Z,5.28
2022-09-24T04:24:01.761Z,5.82
2022-09-24T04:26:28.425Z,5.07
2022-09-24T04:28:59.296Z,5.00
2022-09-24T04:31:28.692Z,4.13
2022-09-24T04:33:57.478Z,3.17
2022-09-24T04:36:24.355Z,3.10
2022-09-24T04:38:53.279Z,3.95
2022-09-24T04:41:20.702Z,5.27
2022-09-24T04:43:47.350Z,4.40
2022-09-24T04:46:18.233Z,4.75
2022-09-24T04:48:47.114Z,3.60
2022-09-24T04:51:19.452Z,2.70
2022-09-24T04:53:48.060Z,2.77
2022-09-24T04:56:15.370Z,3.00
2022-09-24T04:58:44.739Z,2.30
2022-09-24T05:01:14.469Z,1.60
2022-09-24T05:03:41.183Z,1.30
2022-09-24T05:06:07.786Z,1.50
2022-09-24T05:08:36.472Z,1.60
2022-09-24T05:11:03.309Z,1.58
2022-09-24T05:13:32.607Z,1.80
2022-09-24T05:16:01.136Z,1.70
2022-09-24T05:18:32.547Z,1.60
2022-09-24T05:21:01.807Z,1.38
2022-09-24T05:23:28.485Z,1.67
2022-09-24T05:26:13.515Z,1.40
2022-09-24T05:28:44.666Z,1.70
2022-09-24T05:31:11.244Z,1.50
2022-09-24T05:33:38.018Z,1.50
2022-09-24T05:36:04.893Z,2.35
2022-09-24T05:38:32.977Z,1.90
2022-09-24T05:40:59.883Z,2.28
2022-09-24T05:43:28.775Z,2.50
2022-09-24T05:46:00.011Z,1.95
2022-09-24T05:48:26.877Z,1.75
2022-09-24T05:50:55.870Z,1.90
2022-09-24T05:53:26.172Z,1.88
2022-09-24T05:55:53.060Z,2.27
2022-09-24T05:58:20.775Z,2.22
2022-09-24T06:00:47.303Z,2.10
2022-09-24T06:03:18.073Z,1.65
2022-09-24T06:05:51.808Z,2.03
2022-09-24T06:08:20.426Z,1.77
2022-09-24T06:10:47.465Z,1.80
2022-09-24T06:13:19.626Z,2.28
2022-09-24T06:15:46.589Z,2.30
2022-09-24T06:18:13.274Z,2.00
2022-09-24T06:20:40.311Z,1.83
2022-09-24T06:23:09.373Z,1.85
2022-09-24T06:25:36.002Z,2.95
2022-09-24T06:28:04.579Z,2.88
2022-09-24T06:30:43.279Z,2.35
2022-09-24T06:33:14.583Z,2.90
2022-09-24T06:35:43.695Z,2.33
2022-09-24T06:38:15.612Z,2.22
2022-09-24T06:40:45.660Z,2.60
2022-09-24T06:43:13.557Z,2.60
2022-09-24T06:45:42.783Z,2.50
2022-09-24T06:48:15.900Z,2.40
2022-09-24T06:50:47.677Z,2.45
2022-09-24T06:53:16.010Z,2.75
2022-09-24T06:55:42.552Z,2.90
2022-09-24T06:58:14.088Z,2.80
2022-09-24T07:00:41.492Z,3.40
2022-09-24T07:03:16.929Z,3.00
2022-09-24T07:05:48.088Z,3.15
2022-09-24T07:08:14.620Z,3.17
2022-09-24T07:10:49.254Z,4.20
2022-09-24T07:13:18.951Z,4.63
2022-09-24T07:15:48.237Z,4.03
2022-09-24T07:18:14.932Z,4.20
2022-09-24T07:20:43.722Z,4.80
2022-09-24T07:23:13.748Z,4.43
2022-09-24T07:25:40.292Z,4.80
2022-09-24T07:28:13.774Z,4.70
2022-09-24T07:30:40.398Z,4.78
2022-09-24T07:33:08.199Z,4.00
2022-09-24T07:35:38.373Z,3.67
2022-09-24T07:38:08.714Z,3.08
2022-09-24T07:40:38.307Z,3.10
2022-09-24T07:43:12.411Z,3.40
2022-09-24T07:45:41.836Z,3.42
2022-09-24T07:48:10.821Z,4.00
2022-09-24T07:50:45.448Z,4.57
2022-09-24T07:53:16.886Z,5.72
2022-09-24T07:55:43.572Z,5.72
2022-09-24T07:58:14.065Z,5.55
2022-09-24T08:00:42.922Z,4.80
2022-09-24T08:03:09.551Z,5.00
2022-09-24T08:05:43.911Z,4.40
2022-09-24T08:08:15.820Z,3.97
2022-09-24T08:10:47.404Z,4.95
2022-09-24T08:13:13.958Z,4.20
2022-09-24T08:15:41.012Z,4.25
2022-09-24T08:18:08.144Z,4.70
2022-09-24T08:20:37.333Z,4.30
2022-09-24T08:23:06.798Z,4.93
2022-09-24T08:25:33.613Z,4.93
2022-09-24T08:28:06.689Z,5.30
2022-09-24T08:30:39.801Z,5.57
2022-09-24T08:33:09.725Z,5.63
2022-09-24T08:35:45.067Z,5.40
2022-09-24T08:38:11.574Z,5.53
2022-09-24T08:40:51.462Z,5.35
2022-09-24T08:43:36.893Z,5.95
2022-09-24T08:46:32.789Z,5.53
2022-09-24T08:49:02.341Z,6.03
2022-09-24T08:51:41.384Z,5.17
2022-09-24T08:54:11.410Z,6.15
2022-09-24T08:56:43.884Z,6.10
2022-09-24T08:59:24.401Z,6.15
2022-09-24T09:02:25.622Z,6.05
2022-09-24T09:05:27.720Z,5.90
2022-09-24T09:08:02.821Z,5.97
2022-09-24T09:10:38.362Z,6.00
2022-09-24T09:13:28.005Z,5.90
2022-09-24T09:16:17.565Z,5.80
2022-09-24T09:18:50.292Z,5.63
2022-09-24T09:21:18.133Z,5.50
2022-09-24T09:23:49.997Z,5.75
2022-09-24T09:26:20.676Z,4.72
2022-09-24T09:28:53.227Z,4.70
2022-09-24T09:31:27.465Z,4.40
2022-09-24T09:34:01.490Z,4.32
2022-09-24T09:36:53.367Z,4.60
2022-09-24T09:39:47.183Z,5.07
2022-09-24T09:42:28.477Z,4.95
2022-09-24T09:44:55.269Z,4.47
2022-09-24T09:47:43.530Z,5.30
2022-09-24T09:50:37.268Z,4.80
2022-09-24T09:53:05.533Z,4.88
2022-09-24T09:55:36.383Z,5.00
2022-09-24T09:58:14.844Z,5.10
2022-09-24T10:00:49.857Z,5.10
2022-09-24T10:03:26.640Z,5.38
2022-09-24T10:06:02.363Z,4.60
2022-09-24T10:08:31.323Z,5.68
2022-09-24T10:11:03.464Z,5.00
2022-09-24T10:13:33.265Z,4.50
2022-09-24T10:16:06.913Z,5.10
2022-09-24T10:18:43.736Z,4.60
2022-09-24T10:21:28.202Z,4.97
2022-09-24T10:24:00.053Z,4.60
2022-09-24T10:26:45.090Z,4.70
2022-09-24T10:29:45.070Z,5.00
2022-09-24T10:32:23.031Z,4.55
2022-09-24T10:34:56.576Z,4.07
2022-09-24T10:37:23.415Z,4.70
2022-09-24T10:40:11.721Z,4.88
2022-09-24T10:42:38.506Z,4.40
2022-09-24T10:45:14.147Z,4.43
2022-09-24T10:47:53.378Z,4.85
2022-09-24T10:50:31.077Z,4.20
2022-09-24T10:53:02.959Z,4.40
2022-09-24T10:55:55.457Z,4.25
2022-09-24T10:59:00.682Z,4.65
2022-09-24T11:01:38.276Z,4.70
2022-09-24T11:04:23.032Z,4.90
2022-09-24T11:07:07.993Z,4.80
2022-09-24T11:09:58.692Z,4.03
2022-09-24T11:12:34.929Z,4.38
2022-09-24T11:15:19.397Z,4.40
2022-09-24T11:18:03.005Z,4.23
2022-09-24T11:20:35.996Z,4.00
2022-09-24T11:23:11.579Z,3.58
2022-09-24T11:26:12.618Z,3.83
2022-09-24T11:28:57.978Z,4.35
2022-09-24T11:31:36.664Z,4.20
2022-09-24T11:34:22.976Z,3.58
2022-09-24T11:36:58.687Z,3.92
2022-09-24T11:39:25.295Z,3.50
2022-09-24T11:42:11.114Z,3.58
2022-09-24T11:44:53.689Z,3.20
2022-09-24T11:47:38.447Z,3.28
2022-09-24T11:50:22.657Z,3.20
2022-09-24T11:53:12.318Z,3.47
2022-09-24T11:55:57.247Z,3.28
2022-09-24T11:58:43.996Z,3.23
2022-09-24T12:01:16.736Z,3.30
2022-09-24T12:04:18.942Z,3.00
2022-09-24T12:06:57.341Z,2.90
2022-09-24T12:09:54.043Z,3.30
2022-09-24T12:12:26.419Z,2.77
2022-09-24T12:15:08.662Z,2.90
2022-09-24T12:18:00.598Z,3.10
2022-09-24T12:20:31.671Z,2.80
2022-09-24T12:23:04.199Z,3.00
2022-09-24T12:25:40.773Z,3.03
2022-09-24T12:28:38.837Z,3.03
2022-09-24T12:31:34.684Z,2.95
2022-09-24T12:34:13.706Z,2.45
2022-09-24T12:36:58.068Z,2.88
2022-09-24T12:39:33.384Z,2.70
2022-09-24T12:42:06.906Z,2.60
2022-09-24T12:44:50.682Z,2.25
2022-09-24T12:47:29.204Z,2.50
2022-09-24T12:50:01.916Z,2.65
2022-09-24T12:52:37.743Z,2.83
2022-09-24T12:55:05.579Z,2.50
2022-09-24T12:57:37.554Z,1.95
2022-09-24T13:00:47.313Z,2.40
2022-09-24T13:03:43.216Z,1.98
2022-09-24T13:06:39.667Z,2.27
2022-09-24T13:09:35.335Z,2.15
2022-09-24T13:12:17.784Z,2.00
2022-09-24T13:15:36.577Z,2.28
2022-09-24T13:18:06.881Z,2.25
2022-09-24T13:20:36.981Z,1.90
2022-09-24T13:23:19.388Z,2.40
2022-09-24T13:26:06.097Z,2.60
2022-09-24T13:28:58.388Z,2.40
2022-09-24T13:31:30.491Z,2.63
2022-09-24T13:34:06.978Z,2.50
2022-09-24T13:36:33.418Z,3.08
2022-09-24T13:39:21.899Z,2.58
2022-09-24T13:42:21.965Z,3.00
2022-09-24T13:45:03.333Z,3.05
2022-09-24T13:47:53.941Z,2.60
2022-09-24T13:50:32.533Z,2.67
2022-09-24T13:53:07.530Z,3.03
2022-09-24T13:55:39.639Z,2.95
2022-09-24T13:58:29.565Z,3.10
2022-09-24T14:01:00.278Z,2.87
2022-09-24T14:03:28.995Z,2.80
2022-09-24T14:06:01.381Z,2.60
2022-09-24T14:08:30.173Z,2.65
2022-09-24T14:11:13.311Z,2.10
2022-09-24T14:13:45.864Z,1.97
2022-09-24T14:16:18.916Z,1.90
2022-09-24T14:18:45.900Z,2.28
2022-09-24T14:21:32.732Z,2.10
2022-09-24T14:24:16.942Z,2.10
2022-09-24T14:26:49.798Z,1.90
2022-09-24T14:29:27.726Z,2.10
2022-09-24T14:32:01.433Z,2.28
2022-09-24T14:34:33.357Z,1.90
2022-09-24T14:37:09.415Z,1.88
2022-09-24T14:39:43.793Z,1.87
2022-09-24T14:42:26.091Z,1.90
2022-09-24T14:44:55.836Z,1.50
2022-09-24T14:47:28.739Z,1.60
2022-09-24T14:49:58.542Z,1.60
2022-09-24T14:52:36.434Z,1.70
2022-09-24T14:55:20.694Z,1.77
2022-09-24T14:57:50.932Z,1.50
2022-09-24T15:00:22.283Z,1.60
2022-09-24T15:03:05.214Z,1.45
2022-09-24T15:05:34.134Z,1.37
2022-09-24T15:08:30.556Z,1.50
2022-09-24T15:11:04.489Z,1.30
2022-09-24T15:13:36.530Z,1.40
2022-09-24T15:16:18.705Z,1.60
2022-09-24T15:18:52.876Z,1.90
2022-09-24T15:21:19.412Z,2.83
2022-09-24T15:23:45.987Z,3.22
2022-09-24T15:26:12.508Z,3.17
2022-09-24T15:28:41.359Z,1.80
2022-09-24T15:31:12.574Z,1.80
2022-09-24T15:33:39.211Z,1.77
2022-09-24T15:36:08.752Z,3.05
2022-09-24T15:38:35.324Z,3.80
2022-09-24T15:41:04.875Z,4.10
2022-09-24T15:43:31.524Z,3.13
2022-09-24T15:46:00.611Z,7.03
2022-09-24T15:48:27.289Z,3.90
2022-09-24T15:50:57.323Z,3.90
2022-09-24T15:53:30.248Z,1.15
2022-09-24T15:56:02.931Z,1.03
2022-09-24T15:58:29.870Z,1.23
2022-09-24T16:00:56.869Z,1.00
2022-09-24T16:03:26.426Z,0.90
2022-09-24T16:05:56.473Z,1.05
2022-09-24T16:08:25.732Z,1.10
2022-09-24T16:10:55.190Z,1.00
2022-09-24T16:13:23.830Z,1.83
2022-09-24T16:15:55.382Z,1.40
2022-09-24T16:18:26.411Z,0.90
2022-09-24T16:20:56.632Z,0.70
2022-09-24T16:23:26.222Z,0.80
2022-09-24T16:25:57.950Z,0.75
2022-09-24T16:28:25.754Z,0.80
2022-09-24T16:30:52.500Z,0.85
2022-09-24T16:33:21.537Z,0.70
2022-09-24T16:35:48.120Z,0.70
2022-09-24T16:38:22.305Z,0.70
2022-09-24T16:41:00.071Z,0.60
2022-09-24T16:43:26.728Z,0.60
2022-09-24T16:45:53.262Z,0.80
2022-09-24T16:48:22.234Z,1.30
2022-09-24T16:50:53.979Z,0.80
2022-09-24T16:53:20.697Z,0.90
2022-09-24T16:55:47.281Z,0.70
2022-09-24T16:58:13.855Z,1.03
2022-09-24T17:00:42.462Z,0.70
2022-09-24T17:03:11.240Z,0.77
2022-09-24T17:05:40.681Z,0.60
2022-09-24T17:08:12.083Z,1.00
2022-09-24T17:10:42.965Z,0.77
2022-09-24T17:13:12.087Z,0.60
2022-09-24T17:15:38.673Z,0.50
2022-09-24T17:18:05.719Z,0.65
2022-09-24T17:20:35.313Z,0.60
2022-09-24T17:23:04.382Z,0.77
2022-09-24T17:25:31.345Z,0.52
2022-09-24T17:28:01.811Z,0.70
2022-09-24T17:30:28.801Z,0.65
2022-09-24T17:32:57.611Z,0.70
2022-09-24T17:35:24.970Z,0.80
2022-09-24T17:37:51.538Z,0.60
2022-09-24T17:40:24.091Z,0.60
2022-09-24T17:42:51.772Z,0.60
2022-09-24T17:45:22.653Z,0.60
2022-09-24T17:48:01.125Z,1.07
2022-09-24T17:50:30.704Z,1.50
2022-09-24T17:53:00.497Z,0.80
2022-09-24T17:55:29.499Z,0.80
2022-09-24T17:57:56.093Z,0.70
2022-09-24T18:00:22.659Z,0.70
2022-09-24T18:02:49.408Z,1.13
2022-09-24T18:05:16.002Z,1.00
2022-09-24T18:07:42.944Z,1.67
2022-09-24T18:10:09.646Z,1.92
2022-09-24T18:12:38.786Z,1.80
2022-09-24T18:15:05.601Z,2.20
2022-09-24T18:17:34.635Z,2.35
2022-09-24T18:20:01.335Z,1.30
2022-09-24T18:22:30.153Z,1.30
2022-09-24T18:24:57.345Z,1.03
2022-09-24T18:27:23.903Z,1.65
2022-09-24T18:29:52.656Z,2.00
2022-09-24T18:32:23.601Z,1.80
2022-09-24T18:34:50.116Z,1.27
2022-09-24T18:37:21.142Z,1.10
2022-09-24T18:39:50.321Z,1.85
2022-09-24T18:42:19.497Z,2.10
2022-09-24T18:44:50.751Z,3.42
2022-09-24T18:47:17.630Z,1.20
2022-09-24T18:49:44.361Z,0.97
2022-09-24T18:52:13.890Z,2.00
2022-09-24T18:54:40.428Z,2.20
2022-09-24T18:57:06.961Z,2.00
2022-09-24T18:59:38.581Z,2.05
2022-09-24T19:02:07.540Z,1.60
2022-09-24T19:04:36.876Z,1.55
2022-09-24T19:07:08.591Z,1.70
2022-09-24T19:09:38.193Z,1.65
2022-09-24T19:12:08.028Z,2.80
2022-09-24T19:14:37.858Z,3.20
2022-09-24T19:17:04.896Z,2.95
2022-09-24T19:19:34.539Z,3.50
2022-09-24T19:22:01.092Z,4.40
2022-09-24T19:24:27.778Z,4.32
2022-09-24T19:26:54.620Z,3.00
2022-09-24T19:29:25.775Z,3.05
2022-09-24T19:31:52.401Z,2.40
2022-09-24T19:34:21.399Z,2.47
2022-09-24T19:36:47.967Z,2.42
2022-09-24T19:39:16.752Z,1.60
2022-09-24T19:41:46.169Z,2.03
2022-09-24T19:44:16.908Z,1.00
2022-09-24T19:46:46.936Z,1.10
2022-09-24T19:49:14.599Z,0.90
2022-09-24T19:51:43.708Z,0.90
2022-09-24T19:54:15.089Z,0.80
2022-09-24T19:56:44.223Z,0.75
2022-09-24T19:59:13.753Z,0.65
2022-09-24T20:01:42.377Z,0.80
2022-09-24T20:04:16.261Z,1.20
2022-09-24T20:06:42.878Z,1.00
2022-09-24T20:09:11.960Z,2.80
2022-09-24T20:11:38.516Z,1.75
2022-09-24T20:14:11.381Z,2.15
2022-09-24T20:16:40.352Z,1.83
2022-09-24T20:19:07.028Z,1.92
2022-09-24T20:21:36.906Z,2.00
2022-09-24T20:24:08.795Z,3.13
2022-09-24T20:26:53.833Z,3.65
2022-09-24T20:29:22.608Z,3.83
2022-09-24T20:31:52.568Z,2.10
2022-09-24T20:34:22.775Z,1.70
2022-09-24T20:36:49.372Z,0.75
2022-09-24T20:39:18.683Z,0.60
2022-09-24T20:41:49.446Z,1.03
2022-09-24T20:44:16.275Z,2.10
2022-09-24T20:46:42.888Z,2.38
2022-09-24T20:49:23.230Z,2.05
2022-09-24T20:51:56.983Z,1.40
2022-09-24T20:54:24.692Z,1.40
2022-09-24T20:56:51.397Z,3.72
2022-09-24T20:59:18.047Z,4.75
2022-09-24T21:01:48.157Z,3.75
2022-09-24T21:04:17.686Z,4.63
2022-09-24T21:06:44.600Z,1.83
2022-09-24T21:09:11.153Z,2.38
2022-09-24T21:11:38.247Z,2.30
2022-09-24T21:14:05.474Z,2.45
2022-09-24T21:16:35.503Z,2.03
2022-09-24T21:19:08.077Z,1.40
2022-09-24T21:21:38.883Z,1.48
2022-09-24T21:24:07.786Z,1.50
2022-09-24T21:26:36.333Z,2.10
2022-09-24T21:29:11.441Z,2.53
2022-09-24T21:31:39.862Z,3.93
2022-09-24T21:34:10.267Z,4.05
2022-09-24T21:36:44.046Z,3.63
2022-09-24T21:39:23.217Z,2.13
2022-09-24T21:41:51.381Z,2.55
2022-09-24T21:44:19.223Z,3.20
2022-09-24T21:46:46.553Z,3.60
2022-09-24T21:49:17.253Z,3.67
2022-09-24T21:51:44.598Z,3.00
2022-09-24T21:54:15.472Z,4.82
2022-09-24T21:56:44.217Z,3.83
2022-09-24T21:59:29.429Z,4.22
2022-09-24T22:01:56.092Z,3.72
2022-09-24T22:04:23.135Z,2.83
2022-09-24T22:06:52.559Z,1.98
2022-09-24T22:09:19.858Z,2.00
2022-09-24T22:11:47.220Z,2.10
2022-09-24T22:14:14.739Z,1.50
2022-09-24T22:16:44.160Z,1.98
2022-09-24T22:19:12.981Z,2.30
2022-09-24T22:21:40.526Z,2.20
2022-09-24T22:24:09.856Z,2.15
2022-09-24T22:26:36.661Z,2.47
2022-09-24T22:29:04.576Z,2.75
2022-09-24T22:31:33.532Z,2.38
2022-09-24T22:34:19.421Z,2.73
2022-09-24T22:36:48.055Z,2.83
2022-09-24T22:39:15.564Z,2.95
2022-09-24T22:41:43.250Z,2.33
2022-09-24T22:44:12.481Z,2.38
2022-09-24T22:46:41.908Z,2.17
2022-09-24T22:49:09.287Z,2.40
2022-09-24T22:51:40.078Z,2.13
2022-09-24T22:54:09.721Z,2.00
2022-09-24T22:56:37.012Z,1.92
2022-09-24T22:59:07.029Z,2.10
2022-09-24T23:01:40.900Z,2.30
2022-09-24T23:04:07.802Z,1.90
2022-09-24T23:06:37.507Z,1.77
2022-09-24T23:09:06.935Z,2.28
2022-09-24T23:11:35.601Z,1.97
2022-09-24T23:14:05.725Z,2.60
2022-09-24T23:16:35.321Z,2.72
2022-09-24T23:19:05.347Z,2.95
2022-09-24T23:21:33.740Z,2.80
2022-09-24T23:24:06.476Z,2.13
2022-09-24T23:26:34.101Z,2.63
2022-09-24T23:29:03.136Z,2.65
2022-09-24T23:31:32.941Z,2.60
2022-09-24T23:34:02.281Z,1.88
2022-09-24T23:36:32.948Z,2.07
2022-09-24T23:39:00.834Z,2.35
2022-09-24T23:41:31.656Z,2.72
2022-09-24T23:43:59.458Z,3.80
2022-09-24T23:46:26.755Z,3.42
2022-09-24T23:48:53.865Z,3.03
2022-09-24T23:51:23.050Z,3.72
2022-09-24T23:53:50.131Z,3.38
2022-09-24T23:56:21.696Z,3.50
2022-09-24T23:58:50.921Z,3.30
